Etusivu
METAR-TAF:

METAR-TAF

Lentoasemat :

Koksijde, Belgia

Leveyspiiri: 51-05N, Pituuspiiri: 002-39E, korkeus merenpinnasta: 4 m

Tämänhetkinen sää

Tämä raportti tehtiin 15 minuuttia sitten, kello 16.25 UTC
Tuuli 6 kn koillisesta
Lämpötila 1°C
Kosteus 75%
Ilmanpaine 1025 hPa
Näkyvyys: 6000 m

METAR: EBFN 141625Z AUTO 04006KT 6000 OVC035/// 01/M03 Q1025 WHT

Aika: 17:40 (16:40 UTC)

Sääennuste

Tämä raportti tehtiin 4 tuntia ja 59 minuuttia sitten, kello 11.41 UTC
Ennuste voimassa 14. päivästä klo 13 UTC - 14. päivään klo 22 UTC
Tuuli 5 kn idästä
Näkyvyys: 6000 m
Muutamia pilviä 2000 ft:n korkeudessa
Hajanaisia pilviä 3000 ft:n korkeudessa
Ajoittain
14. päivästä klo 13 UTC - 14. päivään klo 22 UTC
Näkyvyys: 4000 m
utua

TAF: EBFN 141141Z 1413/1422 09005KT 6000 FEW020 SCT030 TEMPO 1413/1422 4000 BR

Säähavainnot ja -ennusteet yli 4000 lentoasemalta (METAR- ja TAF-raportit).

Käytössä olevat sääasemat on merkitty karttaan keltaisilla ja punaisilla pisteillä.

Aseta hiiri pisteen päälle nähdäksesi sääaseman nimen.

Klikkaa sitten nähdäksesi säähavainnot ja -ennusteet.

Kartan vaihtaminen: klikkaa mustalla rastilla varustettuja vihreitä pisteitä, niin voit zoomata sisään; viivalla varustettua vihreää pistettä, niin voit zoomata ulos tai vihreitä nuolia, niin pääset viereisille kartoille.


METAR-TAF: